This is the latest recevied weather packets stored in our database for station/object WV6L-13. If no packets are shown the sender has not sent any weather packets the latest 10 day(s).
| Time | Temp. | Humidity | Pressure | Rain* | Wind** | Luminosity | Snow |
|---|---|---|---|---|---|---|---|
| 1777624795 | 13.33° C | 31% | 923.6 hPa | - | - | - | - |
| 1777624495 | 14.44° C | 30% | 923.5 hPa | - | - | - | - |
| 1777624195 | 14.44° C | 29% | 923.4 hPa | - | - | - | - |
| 1777623895 | 14.44° C | 29% | 923.4 hPa | - | - | - | - |
| 1777623595 | 15° C | 29% | 923.5 hPa | - | - | - | - |
| 1777623295 | 15.56° C | 28% | 923.3 hPa | - | - | - | - |
| 1777622995 | 15.56° C | 29% | 923.3 hPa | - | - | - | - |
| 1777622695 | 15.56° C | 27% | 923.6 hPa | - | - | - | - |
| 1777622395 | 16.67° C | 26% | 923.4 hPa | - | - | - | - |
| 1777622095 | 16.11° C | 27% | 923.4 hPa | - | - | - | - |
| 1777621795 | 16.11° C | 27% | 923.4 hPa | - | - | - | - |
| 1777621495 | 15.56° C | 27% | 923.5 hPa | - | - | - | - |
| 1777621195 | 16.67° C | 26% | 923.4 hPa | - | - | - | - |
| 1777620895 | 16.11° C | 28% | 923.2 hPa | - | - | - | - |
| 1777620595 | 16.11° C | 27% | 923.4 hPa | - | - | - | - |
| 1777620295 | 16.11° C | 27% | 923.4 hPa | - | - | - | - |
| 1777619994 | 15.56° C | 27% | 923.5 hPa | - | - | - | - |
| 1777619695 | 16.11° C | 27% | 923.5 hPa | - | - | - | - |
| 1777619395 | 17.22° C | 26% | 923.5 hPa | - | - | - | - |
| 1777618795 | 15° C | 29% | 923.4 hPa | - | - | - | - |
| 1777618495 | 15° C | 31% | 923.4 hPa | - | - | - | - |
| 1777618195 | 15.56° C | 29% | 923.2 hPa | - | - | - | - |
| 1777617895 | 15.56° C | 29% | 923.3 hPa | - | - | - | - |
| 1777617595 | 15.56° C | 28% | 923.3 hPa | - | - | - | - |
| 1777617295 | 16.67° C | 27% | 923.3 hPa | - | - | - | - |
* Rain since midnight (hover to see other rain measurements)
** Current wind speed in m/s (hover to see current wind gust speed)